Wetterdaten: Woche 04.05.15 - 10.05.15 (KW19)
Datum Zeit Temp. Aussen +5cm Feuchte Auss Luftdruck Regen Sonnenschein Regendauer Solar Windben
04.05.2015 00:00 14,0 C 12,0 C 96 % 1004,5 hPa 0,0 l/m 0,00 h 0,00 h 0 W/m 10,7 km/h (2 Bft)
04.05.2015 01:00 13,7 C 11,7 C 96 % 1005,0 hPa 0,0 l/m 0,00 h 0,00 h 0 W/m 8,2 km/h (2 Bft)
04.05.2015 02:00 13,6 C 11,7 C 96 % 1005,4 hPa 0,0 l/m 0,00 h 0,00 h 0 W/m 10,0 km/h (2 Bft)
04.05.2015 03:00 13,5 C 11,7 C 96 % 1005,5 hPa 0,0 l/m 0,00 h 0,00 h 0 W/m 8,3 km/h (2 Bft)
04.05.2015 04:00 13,3 C 11,6 C 96 % 1005,7 hPa 0,0 l/m 0,00 h 0,33 h 0 W/m 8,5 km/h (2 Bft)
04.05.2015 05:00 13,2 C 11,7 C 96 % 1006,0 hPa 0,0 l/m 0,00 h 0,03 h 0 W/m 9,2 km/h (2 Bft)
04.05.2015 06:00 13,1 C 11,6 C 96 % 1006,2 hPa 0,0 l/m 0,00 h 0,07 h 18 W/m 11,3 km/h (2 Bft)
04.05.2015 07:00 13,1 C 11,3 C 96 % 1006,6 hPa 0,2 l/m 0,63 h 0,00 h 120 W/m 17,7 km/h (3 Bft)
04.05.2015 08:00 13,7 C 11,7 C 94 % 1007,5 hPa 0,0 l/m 0,80 h 0,07 h 248 W/m 23,9 km/h (4 Bft)
04.05.2015 09:00 15,0 C 12,7 C 88 % 1007,8 hPa 0,0 l/m 0,60 h 0,00 h 289 W/m 20,8 km/h (4 Bft)
04.05.2015 10:00 16,0 C 13,9 C 83 % 1008,3 hPa 0,0 l/m 0,40 h 0,00 h 281 W/m 19,9 km/h (4 Bft)
04.05.2015 11:00 16,6 C 14,9 C 81 % 1008,9 hPa 0,0 l/m 0,63 h 0,00 h 361 W/m 19,4 km/h (3 Bft)
04.05.2015 12:00 17,7 C 16,0 C 75 % 1008,7 hPa 0,0 l/m 0,70 h 0,00 h 499 W/m 19,9 km/h (4 Bft)
04.05.2015 13:00 19,1 C 16,7 C 69 % 1008,6 hPa 0,0 l/m 0,47 h 0,00 h 574 W/m 22,1 km/h (4 Bft)
04.05.2015 14:00 20,5 C 17,6 C 64 % 1008,3 hPa 0,0 l/m 0,73 h 0,00 h 650 W/m 16,9 km/h (3 Bft)
04.05.2015 15:00 21,7 C 18,0 C 60 % 1007,7 hPa 0,0 l/m 0,83 h 0,00 h 588 W/m 14,6 km/h (3 Bft)
04.05.2015 16:00 22,5 C 17,8 C 58 % 1007,1 hPa 0,0 l/m 0,83 h 0,00 h 588 W/m 12,1 km/h (2 Bft)
04.05.2015 17:00 21,9 C 16,8 C 59 % 1006,6 hPa 0,0 l/m 0,57 h 0,00 h 289 W/m 12,1 km/h (2 Bft)
04.05.2015 18:00 21,2 C 16,7 C 61 % 1005,6 hPa 0,0 l/m 0,47 h 0,00 h 190 W/m 12,6 km/h (3 Bft)
04.05.2015 19:00 20,6 C 15,6 C 65 % 1004,6 hPa 0,0 l/m 0,13 h 0,00 h 92 W/m 9,3 km/h (2 Bft)
04.05.2015 20:00 19,8 C 14,9 C 67 % 1003,8 hPa 0,0 l/m 0,00 h 0,00 h 20 W/m 11,0 km/h (2 Bft)
04.05.2015 21:00 18,8 C 14,4 C 69 % 1003,1 hPa 0,0 l/m 0,00 h 0,07 h 0 W/m 9,4 km/h (2 Bft)
04.05.2015 22:00 18,1 C 13,6 C 74 % 1002,3 hPa 0,4 l/m 0,00 h 0,93 h 0 W/m 13,5 km/h (3 Bft)
04.05.2015 23:00 16,5 C 13,0 C 84 % 1001,1 hPa 2,6 l/m 0,00 h 0,90 h 0 W/m 20,9 km/h (4 Bft)
05.05.2015 00:00 15,2 C 13,2 C 93 % 999,3 hPa 1,2 l/m 0,00 h 0,90 h 0 W/m 21,5 km/h (4 Bft)
05.05.2015 01:00 15,0 C 13,3 C 95 % 997,8 hPa 0,8 l/m 0,00 h 0,97 h 0 W/m 24,3 km/h (4 Bft)
05.05.2015 02:00 15,0 C 13,2 C 96 % 996,8 hPa 0,8 l/m 0,00 h 0,43 h 0 W/m 21,0 km/h (4 Bft)
05.05.2015 03:00 14,8 C 12,8 C 96 % 996,0 hPa 0,0 l/m 0,00 h 0,00 h 0 W/m 18,0 km/h (3 Bft)
05.05.2015 04:00 15,3 C 12,9 C 97 % 995,6 hPa 0,0 l/m 0,00 h 0,00 h 0 W/m 22,3 km/h (4 Bft)
05.05.2015 05:00 16,0 C 13,3 C 94 % 995,3 hPa 0,0 l/m 0,00 h 0,00 h 0 W/m 22,0 km/h (4 Bft)
05.05.2015 06:00 16,6 C 13,5 C 92 % 996,0 hPa 0,0 l/m 0,10 h 0,00 h 21 W/m 22,7 km/h (4 Bft)
05.05.2015 07:00 17,1 C 13,9 C 90 % 996,4 hPa 0,0 l/m 0,00 h 0,20 h 32 W/m 22,3 km/h (4 Bft)
05.05.2015 08:00 17,2 C 13,9 C 91 % 996,8 hPa 1,2 l/m 0,00 h 0,80 h 33 W/m 30,8 km/h (5 Bft)
05.05.2015 09:00 17,4 C 14,6 C 94 % 996,7 hPa 0,4 l/m 0,17 h 0,10 h 171 W/m 14,8 km/h (3 Bft)
05.05.2015 10:00 18,2 C 15,1 C 91 % 996,8 hPa 0,0 l/m 0,13 h 0,00 h 230 W/m 17,8 km/h (3 Bft)
05.05.2015 11:00 21,3 C 17,1 C 83 % 996,5 hPa 0,0 l/m 0,97 h 0,00 h 640 W/m 29,3 km/h (5 Bft)
05.05.2015 12:00 24,3 C 18,3 C 64 % 996,7 hPa 0,0 l/m 0,73 h 0,00 h 655 W/m 35,5 km/h (5 Bft)
05.05.2015 13:00 23,8 C 18,3 C 59 % 997,3 hPa 0,0 l/m 0,43 h 0,00 h 473 W/m 47,5 km/h (6 Bft)
05.05.2015 14:00 22,0 C 17,2 C 63 % 998,8 hPa 0,0 l/m 0,17 h 0,20 h 290 W/m 55,6 km/h (7 Bft)
05.05.2015 15:00 18,0 C 15,4 C 75 % 1002,0 hPa 0,2 l/m 0,23 h 0,53 h 326 W/m 47,4 km/h (6 Bft)
05.05.2015 16:00 17,1 C 15,6 C 75 % 1004,0 hPa 0,0 l/m 0,43 h 0,07 h 341 W/m 36,8 km/h (5 Bft)
05.05.2015 17:00 17,7 C 14,8 C 66 % 1005,0 hPa 0,0 l/m 0,73 h 0,00 h 400 W/m 35,8 km/h (5 Bft)
05.05.2015 18:00 17,5 C 14,2 C 62 % 1005,8 hPa 0,0 l/m 0,85 h 0,00 h 316 W/m 26,3 km/h (4 Bft)
05.05.2015 19:00 17,2 C 13,6 C 59 % 1006,4 hPa 0,0 l/m 0,63 h 0,00 h 143 W/m 20,5 km/h (4 Bft)
05.05.2015 20:00 15,8 C 12,6 C 64 % 1007,2 hPa 0,0 l/m 0,13 h 0,00 h 26 W/m 10,7 km/h (2 Bft)
05.05.2015 21:00 14,5 C 11,7 C 65 % 1007,9 hPa 0,0 l/m 0,00 h 0,00 h 6 W/m 8,5 km/h (2 Bft)
05.05.2015 22:00 13,1 C 10,8 C 72 % 1008,1 hPa 0,0 l/m 0,00 h 0,00 h 0 W/m 7,3 km/h (2 Bft)
05.05.2015 23:00 12,2 C 10,9 C 77 % 1008,4 hPa 0,0 l/m 0,00 h 0,00 h 0 W/m 11,5 km/h (2 Bft)
06.05.2015 00:00 12,3 C 11,0 C 79 % 1008,5 hPa 0,0 l/m 0,00 h 0,00 h 0 W/m 14,5 km/h (3 Bft)
06.05.2015 01:00 13,2 C 11,0 C 76 % 1009,0 hPa 0,0 l/m 0,00 h 0,00 h 0 W/m 17,8 km/h (3 Bft)
06.05.2015 02:00 12,7 C 10,6 C 77 % 1009,4 hPa 0,0 l/m 0,00 h 0,00 h 0 W/m 17,6 km/h (3 Bft)
06.05.2015 03:00 12,3 C 10,3 C 76 % 1009,7 hPa 0,0 l/m 0,00 h 0,00 h 0 W/m 16,1 km/h (3 Bft)
06.05.2015 04:00 11,5 C 9,8 C 77 % 1009,6 hPa 0,0 l/m 0,00 h 0,00 h 0 W/m 13,6 km/h (3 Bft)
06.05.2015 05:00 10,7 C 9,4 C 79 % 1009,6 hPa 0,0 l/m 0,00 h 0,00 h 4 W/m 13,4 km/h (3 Bft)
06.05.2015 06:00 10,0 C 8,9 C 80 % 1009,9 hPa 0,0 l/m 0,27 h 0,00 h 32 W/m 13,5 km/h (3 Bft)
06.05.2015 07:00 10,7 C 9,4 C 80 % 1010,3 hPa 0,0 l/m 1,00 h 0,00 h 155 W/m 20,0 km/h (4 Bft)
06.05.2015 08:00 11,9 C 9,8 C 75 % 1010,7 hPa 0,0 l/m 1,00 h 0,00 h 311 W/m 25,9 km/h (4 Bft)
06.05.2015 09:00 13,7 C 10,8 C 68 % 1010,8 hPa 0,0 l/m 1,00 h 0,00 h 468 W/m 30,0 km/h (5 Bft)
06.05.2015 10:00 15,4 C 12,2 C 62 % 1010,6 hPa 0,0 l/m 0,97 h 0,00 h 581 W/m 33,1 km/h (5 Bft)
06.05.2015 11:00 15,8 C 13,1 C 60 % 1010,6 hPa 0,0 l/m 0,43 h 0,00 h 391 W/m 35,2 km/h (5 Bft)
06.05.2015 12:00 16,6 C 14,0 C 58 % 1010,5 hPa 0,0 l/m 0,30 h 0,00 h 460 W/m 33,9 km/h (5 Bft)
06.05.2015 13:00 16,8 C 14,5 C 58 % 1010,2 hPa 0,0 l/m 0,33 h 0,00 h 397 W/m 33,6 km/h (5 Bft)
06.05.2015 14:00 15,0 C 12,9 C 72 % 1010,5 hPa 0,2 l/m 0,57 h 0,30 h 481 W/m 33,7 km/h (5 Bft)
06.05.2015 15:00 16,0 C 13,8 C 68 % 1010,3 hPa 0,0 l/m 0,90 h 0,10 h 622 W/m 39,4 km/h (6 Bft)
06.05.2015 16:00 16,6 C 13,8 C 59 % 1010,0 hPa 0,0 l/m 0,93 h 0,00 h 589 W/m 45,6 km/h (6 Bft)
06.05.2015 17:00 14,5 C 11,5 C 66 % 1010,9 hPa 0,8 l/m 0,23 h 0,47 h 169 W/m 34,2 km/h (5 Bft)
06.05.2015 18:00 11,9 C 10,6 C 85 % 1011,1 hPa 1,8 l/m 0,42 h 0,48 h 239 W/m 13,0 km/h (3 Bft)
06.05.2015 19:00 12,1 C 10,6 C 89 % 1010,8 hPa 0,0 l/m 0,50 h 0,00 h 111 W/m 13,5 km/h (3 Bft)
06.05.2015 20:00 12,5 C 10,0 C 81 % 1011,1 hPa 0,0 l/m 0,00 h 0,00 h 24 W/m 23,4 km/h (4 Bft)
06.05.2015 21:00 12,4 C 9,6 C 72 % 1011,9 hPa 0,0 l/m 0,00 h 0,00 h 5 W/m 32,4 km/h (5 Bft)
06.05.2015 22:00 11,2 C 9,2 C 78 % 1012,8 hPa 0,0 l/m 0,00 h 0,00 h 0 W/m 23,0 km/h (4 Bft)
06.05.2015 23:00 11,1 C 8,9 C 79 % 1013,2 hPa 0,0 l/m 0,00 h 0,00 h 0 W/m 22,2 km/h (4 Bft)
07.05.2015 00:00 10,7 C 8,9 C 80 % 1013,5 hPa 0,0 l/m 0,00 h 0,00 h 0 W/m 21,5 km/h (4 Bft)
07.05.2015 01:00 10,4 C 8,9 C 80 % 1013,6 hPa 0,0 l/m 0,00 h 0,00 h 0 W/m 25,7 km/h (4 Bft)
07.05.2015 02:00 10,3 C 8,3 C 82 % 1013,7 hPa 0,0 l/m 0,00 h 0,00 h 0 W/m 21,2 km/h (4 Bft)
07.05.2015 03:00 9,8 C 8,3 C 83 % 1013,9 hPa 0,0 l/m 0,00 h 0,00 h 0 W/m 17,5 km/h (3 Bft)
07.05.2015 04:00 9,6 C 8,1 C 84 % 1014,3 hPa 0,0 l/m 0,00 h 0,00 h 0 W/m 23,7 km/h (4 Bft)
07.05.2015 05:00 9,4 C 8,0 C 84 % 1014,8 hPa 0,0 l/m 0,00 h 0,00 h 5 W/m 21,2 km/h (4 Bft)
07.05.2015 06:00 9,2 C 7,9 C 85 % 1015,1 hPa 0,0 l/m 0,00 h 0,00 h 26 W/m 21,2 km/h (4 Bft)
07.05.2015 07:00 9,4 C 8,6 C 86 % 1015,9 hPa 0,0 l/m 0,00 h 0,00 h 83 W/m 21,5 km/h (4 Bft)
07.05.2015 08:00 10,2 C 9,1 C 84 % 1016,6 hPa 0,0 l/m 0,43 h 0,00 h 227 W/m 24,0 km/h (4 Bft)
07.05.2015 09:00 11,2 C 10,0 C 81 % 1017,2 hPa 0,0 l/m 0,07 h 0,00 h 157 W/m 25,7 km/h (4 Bft)
07.05.2015 10:00 12,3 C 11,5 C 77 % 1017,6 hPa 0,0 l/m 0,60 h 0,00 h 343 W/m 26,1 km/h (4 Bft)
07.05.2015 11:00 13,9 C 12,8 C 73 % 1018,0 hPa 0,0 l/m 0,90 h 0,00 h 525 W/m 29,3 km/h (5 Bft)
07.05.2015 12:00 14,4 C 12,9 C 70 % 1018,0 hPa 0,0 l/m 0,20 h 0,00 h 312 W/m 20,9 km/h (4 Bft)
07.05.2015 13:00 14,8 C 13,2 C 69 % 1018,0 hPa 0,0 l/m 0,27 h 0,00 h 343 W/m 21,9 km/h (4 Bft)
07.05.2015 14:00 15,2 C 13,4 C 68 % 1018,3 hPa 0,0 l/m 0,17 h 0,07 h 315 W/m 20,2 km/h (4 Bft)
07.05.2015 15:00 15,7 C 14,0 C 66 % 1018,3 hPa 0,0 l/m 0,40 h 0,00 h 355 W/m 17,1 km/h (3 Bft)
07.05.2015 16:00 16,7 C 14,2 C 61 % 1018,2 hPa 0,0 l/m 0,77 h 0,00 h 394 W/m 20,3 km/h (4 Bft)
07.05.2015 17:00 16,8 C 13,9 C 61 % 1017,9 hPa 0,0 l/m 0,83 h 0,00 h 412 W/m 16,9 km/h (3 Bft)
07.05.2015 18:00 16,5 C 12,9 C 61 % 1017,8 hPa 0,0 l/m 0,97 h 0,00 h 308 W/m 12,7 km/h (3 Bft)
07.05.2015 19:00 15,8 C 12,4 C 63 % 1017,8 hPa 0,0 l/m 0,57 h 0,00 h 123 W/m 7,6 km/h (2 Bft)
07.05.2015 20:00 14,9 C 11,4 C 67 % 1017,9 hPa 0,0 l/m 0,20 h 0,00 h 34 W/m 2,2 km/h (1 Bft)
07.05.2015 21:00 13,1 C 10,0 C 74 % 1018,0 hPa 0,0 l/m 0,00 h 0,00 h 5 W/m 1,5 km/h (1 Bft)
07.05.2015 22:00 11,3 C 9,4 C 80 % 1018,1 hPa 0,0 l/m 0,00 h 0,00 h 0 W/m 2,0 km/h (1 Bft)
07.05.2015 23:00 10,3 C 9,3 C 84 % 1018,1 hPa 0,0 l/m 0,00 h 0,00 h 0 W/m 1,5 km/h (1 Bft)
08.05.2015 00:00 9,7 C 8,9 C 87 % 1018,1 hPa 0,0 l/m 0,00 h 0,00 h 0 W/m 1,4 km/h (1 Bft)
08.05.2015 01:00 9,2 C 8,9 C 88 % 1017,7 hPa 0,0 l/m 0,00 h 0,00 h 0 W/m 0,3 km/h (0 Bft)
08.05.2015 02:00 9,0 C 8,9 C 89 % 1017,3 hPa 0,0 l/m 0,00 h 0,00 h 0 W/m 0,8 km/h (0 Bft)
08.05.2015 03:00 8,9 C 8,9 C 90 % 1017,0 hPa 0,0 l/m 0,00 h 0,00 h 0 W/m 0,9 km/h (0 Bft)
08.05.2015 04:00 9,0 C 8,9 C 92 % 1016,6 hPa 0,0 l/m 0,00 h 0,00 h 0 W/m 1,6 km/h (1 Bft)
08.05.2015 05:00 9,1 C 8,9 C 93 % 1016,1 hPa 0,0 l/m 0,00 h 0,00 h 0 W/m 1,9 km/h (1 Bft)
08.05.2015 06:00 9,2 C 8,9 C 94 % 1015,9 hPa 0,0 l/m 0,00 h 0,00 h 15 W/m 4,3 km/h (1 Bft)
08.05.2015 07:00 9,5 C 9,5 C 93 % 1015,8 hPa 0,0 l/m 0,00 h 0,00 h 63 W/m 7,1 km/h (2 Bft)
08.05.2015 08:00 10,7 C 10,4 C 89 % 1015,7 hPa 0,0 l/m 0,13 h 0,00 h 142 W/m 8,9 km/h (2 Bft)
08.05.2015 09:00 12,7 C 11,7 C 81 % 1015,3 hPa 0,0 l/m 0,57 h 0,00 h 317 W/m 13,0 km/h (3 Bft)
08.05.2015 10:00 16,1 C 13,6 C 69 % 1015,2 hPa 0,0 l/m 0,93 h 0,00 h 525 W/m 11,3 km/h (2 Bft)
08.05.2015 11:00 19,2 C 14,6 C 57 % 1015,0 hPa 0,0 l/m 0,87 h 0,00 h 605 W/m 13,0 km/h (3 Bft)
08.05.2015 12:00 19,9 C 15,7 C 51 % 1014,6 hPa 0,0 l/m 0,73 h 0,00 h 542 W/m 11,3 km/h (2 Bft)
08.05.2015 13:00 19,8 C 15,9 C 51 % 1014,3 hPa 0,0 l/m 0,53 h 0,00 h 540 W/m 8,6 km/h (2 Bft)
08.05.2015 14:00 21,9 C 16,9 C 48 % 1014,0 hPa 0,0 l/m 1,00 h 0,00 h 726 W/m 9,0 km/h (2 Bft)
08.05.2015 15:00 22,0 C 16,9 C 45 % 1013,8 hPa 0,0 l/m 0,73 h 0,00 h 547 W/m 8,7 km/h (2 Bft)
08.05.2015 16:00 21,9 C 17,2 C 45 % 1013,5 hPa 0,0 l/m 0,93 h 0,00 h 501 W/m 10,5 km/h (2 Bft)
08.05.2015 17:00 21,9 C 17,0 C 45 % 1013,2 hPa 0,0 l/m 0,97 h 0,00 h 374 W/m 8,2 km/h (2 Bft)
08.05.2015 18:00 21,0 C 16,2 C 47 % 1013,0 hPa 0,0 l/m 0,37 h 0,00 h 183 W/m 4,0 km/h (1 Bft)
08.05.2015 19:00 20,0 C 15,3 C 50 % 1013,1 hPa 0,0 l/m 0,00 h 0,00 h 74 W/m 4,5 km/h (1 Bft)
08.05.2015 20:00 18,9 C 14,3 C 57 % 1013,3 hPa 0,0 l/m 0,37 h 0,00 h 34 W/m 2,2 km/h (1 Bft)
08.05.2015 21:00 17,6 C 13,1 C 65 % 1013,5 hPa 0,0 l/m 0,00 h 0,00 h 5 W/m 2,4 km/h (1 Bft)
08.05.2015 22:00 15,5 C 12,2 C 75 % 1013,7 hPa 0,0 l/m 0,00 h 0,00 h 0 W/m 3,1 km/h (1 Bft)
08.05.2015 23:00 14,4 C 12,2 C 77 % 1013,7 hPa 0,0 l/m 0,00 h 0,00 h 0 W/m 6,8 km/h (2 Bft)
09.05.2015 00:00 14,8 C 12,3 C 75 % 1013,8 hPa 0,0 l/m 0,00 h 0,00 h 0 W/m 10,8 km/h (2 Bft)
09.05.2015 01:00 15,2 C 12,8 C 72 % 1013,8 hPa 0,0 l/m 0,00 h 0,03 h 0 W/m 11,6 km/h (2 Bft)
09.05.2015 02:00 15,1 C 12,2 C 73 % 1013,5 hPa 0,0 l/m 0,00 h 0,00 h 0 W/m 11,3 km/h (2 Bft)
09.05.2015 03:00 14,9 C 12,2 C 74 % 1013,4 hPa 0,0 l/m 0,00 h 0,00 h 0 W/m 11,9 km/h (2 Bft)
09.05.2015 04:00 14,6 C 12,2 C 77 % 1013,4 hPa 0,0 l/m 0,00 h 0,00 h 0 W/m 11,8 km/h (2 Bft)
09.05.2015 05:00 14,7 C 12,2 C 78 % 1013,5 hPa 0,0 l/m 0,00 h 0,00 h 5 W/m 14,9 km/h (3 Bft)
09.05.2015 06:00 14,8 C 12,5 C 82 % 1013,7 hPa 0,0 l/m 0,00 h 0,00 h 29 W/m 13,6 km/h (3 Bft)
09.05.2015 07:00 15,2 C 12,8 C 84 % 1014,2 hPa 0,0 l/m 0,00 h 0,03 h 40 W/m 18,9 km/h (3 Bft)
09.05.2015 08:00 15,4 C 13,4 C 82 % 1014,8 hPa 0,0 l/m 0,00 h 0,00 h 99 W/m 25,2 km/h (4 Bft)
09.05.2015 09:00 15,8 C 14,1 C 77 % 1015,3 hPa 0,0 l/m 0,03 h 0,00 h 186 W/m 28,5 km/h (4 Bft)
09.05.2015 10:00 16,8 C 15,1 C 73 % 1015,6 hPa 0,0 l/m 0,40 h 0,00 h 343 W/m 29,9 km/h (5 Bft)
09.05.2015 11:00 18,4 C 16,3 C 67 % 1015,9 hPa 0,0 l/m 0,70 h 0,00 h 592 W/m 27,8 km/h (4 Bft)
09.05.2015 12:00 19,9 C 17,4 C 60 % 1015,9 hPa 0,0 l/m 0,80 h 0,00 h 707 W/m 38,7 km/h (5 Bft)
09.05.2015 13:00 19,5 C 17,7 C 59 % 1016,3 hPa 0,0 l/m 0,40 h 0,00 h 457 W/m 33,4 km/h (5 Bft)
09.05.2015 14:00 19,4 C 17,4 C 57 % 1016,6 hPa 0,0 l/m 0,50 h 0,00 h 428 W/m 35,4 km/h (5 Bft)
09.05.2015 15:00 19,4 C 17,4 C 58 % 1016,8 hPa 0,0 l/m 0,47 h 0,00 h 479 W/m 31,3 km/h (5 Bft)
09.05.2015 16:00 18,1 C 15,2 C 60 % 1017,3 hPa 0,0 l/m 0,00 h 0,50 h 135 W/m 31,5 km/h (5 Bft)
09.05.2015 17:00 16,8 C 14,2 C 68 % 1017,8 hPa 0,0 l/m 0,90 h 0,17 h 479 W/m 28,5 km/h (4 Bft)
09.05.2015 18:00 17,3 C 14,4 C 60 % 1017,8 hPa 0,0 l/m 0,60 h 0,00 h 271 W/m 37,5 km/h (5 Bft)
09.05.2015 19:00 16,8 C 14,0 C 62 % 1017,9 hPa 0,0 l/m 0,10 h 0,00 h 91 W/m 27,1 km/h (4 Bft)
09.05.2015 20:00 16,1 C 13,3 C 64 % 1018,5 hPa 0,0 l/m 0,07 h 0,13 h 24 W/m 30,1 km/h (5 Bft)
09.05.2015 21:00 15,0 C 12,6 C 72 % 1019,5 hPa 0,0 l/m 0,00 h 0,07 h 4 W/m 20,8 km/h (4 Bft)
09.05.2015 22:00 14,0 C 12,1 C 77 % 1020,3 hPa 0,0 l/m 0,00 h 0,00 h 0 W/m 11,9 km/h (2 Bft)
09.05.2015 23:00 13,4 C 11,6 C 79 % 1020,5 hPa 0,0 l/m 0,00 h 0,00 h 0 W/m 14,4 km/h (3 Bft)
10.05.2015 00:00 12,9 C 11,1 C 82 % 1021,3 hPa 0,0 l/m 0,00 h 0,00 h 0 W/m 14,7 km/h (3 Bft)
10.05.2015 01:00 12,6 C 11,1 C 84 % 1021,9 hPa 0,0 l/m 0,00 h 0,00 h 0 W/m 16,1 km/h (3 Bft)
10.05.2015 02:00 12,3 C 10,9 C 85 % 1022,4 hPa 0,0 l/m 0,00 h 0,00 h 0 W/m 9,9 km/h (2 Bft)
10.05.2015 03:00 11,5 C 10,1 C 86 % 1023,4 hPa 0,0 l/m 0,00 h 0,00 h 0 W/m 10,3 km/h (2 Bft)
10.05.2015 04:00 10,8 C 10,0 C 89 % 1023,9 hPa 0,0 l/m 0,00 h 0,00 h 0 W/m 9,4 km/h (2 Bft)
10.05.2015 05:00 10,1 C 9,3 C 90 % 1024,5 hPa 0,0 l/m 0,00 h 0,00 h 6 W/m 4,8 km/h (1 Bft)
10.05.2015 06:00 9,2 C 8,9 C 90 % 1025,2 hPa 0,0 l/m 0,30 h 0,00 h 40 W/m 2,8 km/h (1 Bft)
10.05.2015 07:00 9,2 C 9,2 C 92 % 1025,7 hPa 0,0 l/m 0,90 h 0,00 h 127 W/m 6,1 km/h (2 Bft)
10.05.2015 08:00 10,1 C 9,8 C 93 % 1026,0 hPa 0,0 l/m 1,00 h 0,00 h 291 W/m 7,4 km/h (2 Bft)
10.05.2015 09:00 12,9 C 11,2 C 79 % 1026,3 hPa 0,0 l/m 0,97 h 0,00 h 448 W/m 10,1 km/h (2 Bft)
10.05.2015 10:00 15,1 C 12,8 C 69 % 1026,7 hPa 0,0 l/m 0,77 h 0,00 h 490 W/m 10,2 km/h (2 Bft)
10.05.2015 11:00 16,7 C 14,0 C 65 % 1026,9 hPa 0,0 l/m 0,63 h 0,00 h 531 W/m 10,5 km/h (2 Bft)
10.05.2015 12:00 16,9 C 15,0 C 62 % 1026,9 hPa 0,0 l/m 0,37 h 0,00 h 467 W/m 10,3 km/h (2 Bft)
10.05.2015 13:00 17,8 C 16,5 C 59 % 1026,8 hPa 0,0 l/m 0,73 h 0,00 h 636 W/m 11,2 km/h (2 Bft)
10.05.2015 14:00 19,1 C 16,5 C 57 % 1026,4 hPa 0,0 l/m 0,77 h 0,00 h 707 W/m 9,4 km/h (2 Bft)
10.05.2015 15:00 21,3 C 16,9 C 52 % 1026,0 hPa 0,0 l/m 1,00 h 0,00 h 721 W/m 12,6 km/h (3 Bft)
10.05.2015 16:00 21,5 C 17,2 C 51 % 1025,6 hPa 0,0 l/m 1,00 h 0,00 h 593 W/m 12,5 km/h (3 Bft)
10.05.2015 17:00 21,3 C 16,7 C 50 % 1025,1 hPa 0,0 l/m 1,00 h 0,00 h 407 W/m 11,0 km/h (2 Bft)
10.05.2015 18:00 20,2 C 16,0 C 53 % 1024,5 hPa 0,0 l/m 0,97 h 0,00 h 308 W/m 15,2 km/h (3 Bft)
10.05.2015 19:00 19,5 C 15,3 C 56 % 1024,3 hPa 0,0 l/m 0,93 h 0,00 h 145 W/m 13,0 km/h (3 Bft)
10.05.2015 20:00 18,6 C 14,3 C 61 % 1024,3 hPa 0,0 l/m 0,10 h 0,00 h 38 W/m 6,3 km/h (2 Bft)
10.05.2015 21:00 17,1 C 12,8 C 65 % 1024,4 hPa 0,0 l/m 0,00 h 0,00 h 5 W/m 3,3 km/h (1 Bft)
10.05.2015 22:00 15,2 C 11,9 C 72 % 1024,1 hPa 0,0 l/m 0,00 h 0,00 h 0 W/m 3,6 km/h (1 Bft)
10.05.2015 23:00 13,8 C 11,2 C 76 % 1023,7 hPa 0,0 l/m 0,00 h 0,00 h 0 W/m 6,0 km/h (2 Bft)
Min-Datum _ 08.05.15 07.05.15 08.05.15 05.05.15 - - - - 07.05.15
_ Min-Zeit 02:56 04:34 14:58 05:06 - - - - 20:16
Minimum _ 8,8 C 7,8 C 43 % 995,2 hPa - - - - 0,0 km/h (0 Bft)
Max-Datum _ 05.05.15 04.05.15 04.05.15 10.05.15 04.05.15 04.05.15 04.05.15 05.05.15 05.05.15
_ Max-Zeit 12:46 14:54 06:44 11:48 23:44 07:16 04:40 13:52 14:48
Maximum _ 24,9 C 18,9 C 97 % 1027,1 hPa 2,6 l/m 0,03 h 0,03 h 1072 W/m 81,6 km/h
SW (9 Bft)
Durchschnitt _ 15,3 C 12,8 C 74 % 1012,8 hPa #10,6 l/m #53:16 h #8:57 h 291 W/m 17,3 km/h (3 Bft)
© 2015 W. Hausmann